Time;durP1;ratioP1;P1;durP2;ratioP2;P2;SDS_P1;SDS_P2;PMS_P1;PMS_P2;Temp;Humidity;BMP_temperature;BMP_pressure;BME280_temperature;BME280_humidity;BME280_pressure;Samples;Min_cycle;Max_cycle;Signal;HPM_P1;HPM_P2
2022/09/25 00:00:31;;;;;;;2.17;2.07;;;;;;;11.99;100.00;100101.69;5030173;28;20896;-75
2022/09/25 00:02:57;;;;;;;2.23;2.13;;;;;;;12.00;100.00;100097.81;5202104;23;20224;-75
2022/09/25 00:05:22;;;;;;;3.40;3.17;;;;;;;11.99;100.00;100105.22;5022879;28;20555;-75
2022/09/25 00:07:47;;;;;;;2.77;2.67;;;;;;;12.01;100.00;100093.97;5030558;28;20190;-76
2022/09/25 00:10:13;;;;;;;4.50;4.20;;;;;;;11.99;100.00;100093.47;5029283;28;20550;-75
2022/09/25 00:12:38;;;;;;;7.67;3.13;;;;;;;11.99;100.00;100094.25;5030809;28;20200;-74
2022/09/25 00:15:06;;;;;;;3.80;3.50;;;;;;;11.96;100.00;100092.19;5030729;28;20570;-75
2022/09/25 00:17:32;;;;;;;3.60;3.40;;;;;;;11.96;100.00;100085.91;5030512;28;20658;-75
2022/09/25 00:19:58;;;;;;;5.67;5.10;;;;;;;11.92;100.00;100083.03;5030529;28;20237;-75
2022/09/25 00:22:23;;;;;;;1.70;1.60;;;;;;;11.90;100.00;100077.91;5030260;28;20172;-75
2022/09/25 00:24:49;;;;;;;4.17;3.87;;;;;;;11.85;100.00;100075.31;5030476;28;20180;-75
2022/09/25 00:27:15;;;;;;;1.33;1.23;;;;;;;11.82;100.00;100083.41;5030042;28;20279;-76
2022/09/25 00:29:41;;;;;;;0.00;0.00;;;;;;;11.79;100.00;100073.91;5030378;28;20222;-76
2022/09/25 00:32:09;;;;;;;7.83;4.70;;;;;;;11.78;100.00;100068.75;5028938;28;20172;-76
2022/09/25 00:34:36;;;;;;;4.43;4.03;;;;;;;11.74;100.00;100070.53;5030312;28;20176;-75
2022/09/25 00:37:01;;;;;;;3.67;3.40;;;;;;;11.74;100.00;100065.06;5029849;28;20187;-74
2022/09/25 00:39:26;;;;;;;7.67;3.77;;;;;;;11.74;100.00;100076.81;5030177;28;20187;-76
2022/09/25 00:41:52;;;;;;;4.23;3.83;;;;;;;11.73;100.00;100072.47;5032066;28;20176;-75
2022/09/25 00:44:55;;;;;;;3.57;3.37;;;;;;;11.72;100.00;100070.88;5016138;28;20270;-75
2022/09/25 00:47:31;;;;;;;1.40;1.30;;;;;;;11.70;100.00;100073.09;5033694;28;20204;-75
2022/09/25 00:50:00;;;;;;;8.77;4.07;;;;;;;11.74;100.00;100073.28;5034096;28;20506;-76
2022/09/25 00:52:26;;;;;;;0.47;0.47;;;;;;;11.71;100.00;100071.97;5033744;28;20176;-75
2022/09/25 00:55:04;;;;;;;5.57;2.23;;;;;;;11.74;100.00;100073.28;5033703;28;20200;-76
2022/09/25 00:57:32;;;;;;;2.77;2.57;;;;;;;11.73;100.00;100068.94;5015608;28;20225;-75
2022/09/25 01:00:05;;;;;;;2.77;2.57;;;;;;;11.73;100.00;100064.25;5033443;28;20192;-75
2022/09/25 01:02:34;;;;;;;1.43;1.37;;;;;;;11.74;100.00;100068.59;5033268;28;20180;-75
2022/09/25 01:05:05;;;;;;;4.87;4.50;;;;;;;11.75;100.00;100078.41;5033538;28;20164;-74
2022/09/25 01:07:37;;;;;;;4.17;3.70;;;;;;;11.73;100.00;100077.94;5033783;28;20181;-76
2022/09/25 01:10:04;;;;;;;1.43;1.33;;;;;;;11.74;100.00;100076.81;5015642;28;20188;-75
2022/09/25 01:12:30;;;;;;;6.57;3.10;;;;;;;11.76;100.00;100076.47;5033623;28;20186;-75
2022/09/25 01:14:56;;;;;;;5.63;5.07;;;;;;;11.78;100.00;100075.03;5033258;28;20172;-75
2022/09/25 01:17:28;;;;;;;2.53;2.43;;;;;;;11.77;100.00;100070.69;5033060;28;20168;-76
2022/09/25 01:20:15;;;;;;;4.97;4.17;;;;;;;11.78;100.00;100080.50;5033439;28;20211;-76
2022/09/25 01:22:44;;;;;;;7.77;7.07;;;;;;;11.77;100.00;100083.56;5031713;28;20547;-76
2022/09/25 01:25:18;;;;;;;3.40;2.30;;;;;;;11.74;100.00;100079.56;5033040;28;20658;-75
2022/09/25 01:28:05;;;;;;;9.30;5.70;;;;;;;11.71;100.00;100076.66;5031553;28;20221;-76
2022/09/25 01:30:39;;;;;;;3.13;2.93;;;;;;;11.70;100.00;100078.56;5033306;28;20172;-74
2022/09/25 01:33:12;;;;;;;2.43;2.00;;;;;;;11.72;100.00;100072.81;5032996;28;20176;-75
2022/09/25 01:36:00;;;;;;;7.30;4.73;;;;;;;11.66;100.00;100079.56;5032768;28;20229;-75
2022/09/25 01:38:33;;;;;;;5.17;4.80;;;;;;;11.62;100.00;100080.22;5032779;28;20251;-75
2022/09/25 01:41:20;;;;;;;3.57;3.30;;;;;;;11.58;100.00;100084.75;5032612;28;20322;-75
2022/09/25 01:43:58;;;;;;;18.70;5.07;;;;;;;11.58;100.00;100083.97;5032555;28;20190;-75
2022/09/25 01:46:29;;;;;;;2.80;2.70;;;;;;;11.58;100.00;100090.22;5032669;28;20199;-75
2022/09/25 01:49:01;;;;;;;8.87;4.47;;;;;;;11.57;100.00;100090.53;5032641;28;20255;-75
2022/09/25 01:51:33;;;;;;;2.17;1.87;;;;;;;11.56;100.00;100089.72;5032538;28;20167;-75
2022/09/25 01:54:06;;;;;;;5.43;4.93;;;;;;;11.55;100.00;100087.31;5031417;28;20176;-76
2022/09/25 01:56:43;;;;;;;3.37;3.07;;;;;;;11.54;100.00;100085.72;5032386;28;20176;-76
2022/09/25 01:59:16;;;;;;;2.60;2.40;;;;;;;11.55;100.00;100087.31;5032430;28;20635;-75
2022/09/25 02:01:46;;;;;;;0.90;0.90;;;;;;;11.56;100.00;100094.41;5032200;28;20220;-75
2022/09/25 02:04:17;;;;;;;7.63;3.40;;;;;;;11.54;100.00;100082.97;5032595;28;20191;-75
2022/09/25 02:06:48;;;;;;;2.30;2.10;;;;;;;11.50;100.00;100080.09;5031969;28;20210;-75
2022/09/25 02:09:32;;;;;;;2.87;2.67;;;;;;;11.51;100.00;100080.91;5032397;28;20176;-75
2022/09/25 02:12:06;;;;;;;1.80;1.70;;;;;;;11.50;100.00;100077.38;5032104;28;20172;-75
2022/09/25 02:14:38;;;;;;;2.33;2.23;;;;;;;11.47;100.00;100078.03;5032344;28;20179;-76
2022/09/25 02:17:09;;;;;;;8.80;4.17;;;;;;;11.45;100.00;100082.22;5031920;28;20629;-78
2022/09/25 02:22:22;;;;;;;3.10;2.67;;;;;;;11.41;100.00;100070.31;5032180;28;20179;-77
2022/09/25 02:24:55;;;;;;;3.57;3.27;;;;;;;11.41;100.00;100070.31;5014400;28;20275;-77
2022/09/25 02:27:21;;;;;;;3.00;2.80;;;;;;;11.39;100.00;100075.31;5031936;28;20490;-77
2022/09/25 02:29:47;;;;;;;3.47;3.27;;;;;;;11.36;100.00;100075.97;5014144;28;20270;-77
2022/09/25 02:32:16;;;;;;;3.53;3.23;;;;;;;11.35;100.00;100069.69;5031992;28;20259;-77
2022/09/25 02:34:42;;;;;;;1.57;1.57;;;;;;;11.35;100.00;100077.09;5031913;28;20215;-77
2022/09/25 02:37:15;;;;;;;2.43;2.33;;;;;;;11.37;100.00;100072.09;5031434;28;20175;-77
2022/09/25 02:39:44;;;;;;;3.87;3.53;;;;;;;11.36;100.00;100071.28;5031401;28;20218;-77
2022/09/25 02:42:49;;;;;;;1.30;1.30;;;;;;;11.35;100.00;100066.16;5031642;28;20187;-77
2022/09/25 02:45:20;;;;;;;3.50;2.97;;;;;;;11.35;100.00;100077.88;5031534;28;20172;-75
2022/09/25 02:47:50;;;;;;;4.17;3.73;;;;;;;11.35;100.00;100074.34;5031483;28;20160;-77
2022/09/25 02:50:27;;;;;;;6.40;4.33;;;;;;;11.34;100.00;100081.75;5031255;28;20251;-77
2022/09/25 02:53:01;;;;;;;1.93;1.83;;;;;;;11.33;100.00;100075.47;5031347;28;20183;-75
2022/09/25 02:55:39;;;;;;;3.03;2.83;;;;;;;11.32;100.00;100071.16;5031415;28;20173;-75
2022/09/25 02:58:17;;;;;;;3.63;3.43;;;;;;;11.32;100.00;100073.88;5031302;28;20168;-76
2022/09/25 03:00:47;;;;;;;0.77;0.77;;;;;;;11.33;100.00;100061.81;5031052;28;20202;-75
2022/09/25 03:03:16;;;;;;;1.70;1.17;;;;;;;11.37;100.00;100074.81;5013546;28;20211;-75
2022/09/25 03:05:42;;;;;;;0.23;0.23;;;;;;;11.37;100.00;100070.16;5030788;28;20191;-74
2022/09/25 03:10:52;;;;;;;1.23;1.13;;;;;;;11.37;100.00;100064.69;5031163;28;20207;-76
2022/09/25 03:13:32;;;;;;;1.33;1.33;;;;;;;11.33;100.00;100061.81;5031703;28;20195;-75
2022/09/25 03:16:01;;;;;;;19.77;3.33;;;;;;;11.25;100.00;100065.34;5031127;28;20201;-76
2022/09/25 03:18:29;;;;;;;3.00;2.07;;;;;;;11.23;100.00;100061.34;5031392;28;20529;-76
2022/09/25 03:20:55;;;;;;;4.43;4.07;;;;;;;11.20;100.00;100060.06;5031088;28;20594;-76
2022/09/25 03:23:20;;;;;;;6.87;5.97;;;;;;;11.21;100.00;100061.66;5031091;28;20175;-76
2022/09/25 03:25:46;;;;;;;5.63;4.43;;;;;;;11.18;100.00;100062.31;5031309;28;20263;-76
2022/09/25 03:28:12;;;;;;;3.93;3.60;;;;;;;11.16;100.00;100059.13;5031224;28;20168;-77
2022/09/25 03:30:39;;;;;;;0.50;0.50;;;;;;;11.19;100.00;100057.66;5030936;28;20517;-76
2022/09/25 03:33:09;;;;;;;28.60;4.60;;;;;;;11.20;100.00;100062.00;5033644;28;20175;-76
2022/09/25 03:35:39;;;;;;;1.10;0.87;;;;;;;11.21;100.00;100055.41;5014938;28;20702;-77
2022/09/25 03:38:07;;;;;;;3.27;3.07;;;;;;;11.20;100.00;100056.53;5030959;28;20171;-77
2022/09/25 03:40:32;;;;;;;2.80;1.70;;;;;;;11.17;100.00;100054.44;5030919;28;20266;-77
2022/09/25 03:42:57;;;;;;;1.30;1.17;;;;;;;11.18;100.00;100056.06;5031206;28;20639;-77
2022/09/25 03:45:23;;;;;;;2.13;2.00;;;;;;;11.20;100.00;100051.88;5029687;28;20604;-76
2022/09/25 03:47:48;;;;;;;3.70;3.40;;;;;;;11.19;100.00;100061.19;5030637;28;20229;-76
2022/09/25 03:50:14;;;;;;;2.37;2.20;;;;;;;11.19;100.00;100055.72;5030879;28;20176;-76
2022/09/25 03:52:39;;;;;;;2.40;2.13;;;;;;;11.20;100.00;100057.34;5030813;28;20172;-77
2022/09/25 03:55:05;;;;;;;4.90;4.63;;;;;;;11.20;100.00;100059.25;5030976;28;20632;-76
2022/09/25 03:57:31;;;;;;;4.90;2.70;;;;;;;11.22;100.00;100057.81;5030427;28;20214;-76
2022/09/25 04:00:00;;;;;;;3.30;3.00;;;;;;;11.24;100.00;100052.81;5030647;28;20207;-76
2022/09/25 04:02:27;;;;;;;2.67;2.47;;;;;;;11.22;100.00;100051.53;5030337;28;20266;-76
2022/09/25 04:04:53;;;;;;;5.37;4.97;;;;;;;11.19;100.00;100055.72;5030518;28;20172;-75
2022/09/25 04:07:19;;;;;;;4.33;4.03;;;;;;;11.20;100.00;100054.59;5030111;28;20226;-75
2022/09/25 04:09:45;;;;;;;3.80;2.17;;;;;;;11.19;100.00;100050.25;5030556;28;20175;-75
2022/09/25 04:12:10;;;;;;;1.57;1.57;;;;;;;11.22;100.00;100046.06;5030435;28;20230;-75
2022/09/25 04:14:35;;;;;;;1.77;1.67;;;;;;;11.21;100.00;100050.72;5030370;28;20180;-75
2022/09/25 04:17:01;;;;;;;3.07;2.87;;;;;;;11.23;100.00;100048.47;5032410;28;20172;-75
2022/09/25 04:19:26;;;;;;;3.67;3.47;;;;;;;11.21;100.00;100039.78;5034156;28;20176;-76
2022/09/25 04:21:51;;;;;;;2.57;2.37;;;;;;;11.20;100.00;100045.59;5034004;28;20176;-75
2022/09/25 04:27:00;;;;;;;3.63;3.40;;;;;;;11.21;100.00;100045.25;5034123;28;20186;-76
2022/09/25 04:29:26;;;;;;;1.07;1.07;;;;;;;11.21;100.00;100039.00;5034394;28;20606;-75
2022/09/25 04:34:36;;;;;;;1.87;1.77;;;;;;;11.20;100.00;100043.66;5033968;28;20671;-75
2022/09/25 04:37:01;;;;;;;0.93;0.93;;;;;;;11.22;100.00;100044.13;5033552;28;20176;-75
2022/09/25 04:39:27;;;;;;;2.20;2.10;;;;;;;11.24;100.00;100050.06;5034015;28;20271;-76
2022/09/25 04:41:52;;;;;;;3.53;3.23;;;;;;;11.23;100.00;100050.41;5033572;28;20218;-75
2022/09/25 04:44:17;;;;;;;0.87;0.87;;;;;;;11.24;100.00;100047.34;5034049;28;20180;-75
2022/09/25 04:46:43;;;;;;;27.50;1.73;;;;;;;11.26;100.00;100047.00;5033837;28;20216;-76
2022/09/25 04:49:08;;;;;;;0.27;0.27;;;;;;;11.29;100.00;100052.66;5033785;28;20180;-76
2022/09/25 04:51:33;;;;;;;1.30;1.20;;;;;;;11.32;100.00;100057.47;5033545;28;20266;-76
2022/09/25 04:53:59;;;;;;;0.83;0.83;;;;;;;11.33;100.00;100056.34;5032410;28;20175;-76
2022/09/25 04:56:24;;;;;;;2.87;2.73;;;;;;;11.33;100.00;100050.06;5015503;28;20211;-75
2022/09/25 04:58:50;;;;;;;1.60;1.50;;;;;;;11.34;100.00;100057.13;5033609;28;20184;-76
2022/09/25 05:01:17;;;;;;;0.70;0.70;;;;;;;11.36;100.00;100059.53;5033241;28;20231;-75
2022/09/25 05:03:43;;;;;;;0.77;0.73;;;;;;;11.39;100.00;100058.88;5033247;28;20245;-76
2022/09/25 05:06:08;;;;;;;1.07;1.07;;;;;;;11.39;100.00;100056.97;5033148;28;20188;-75
2022/09/25 05:08:33;;;;;;;0.77;0.20;;;;;;;11.40;100.00;100055.03;5033421;28;20648;-75
2022/09/25 05:10:59;;;;;;;0.60;0.60;;;;;;;11.38;100.00;100063.56;5033465;28;20180;-75
2022/09/25 05:13:24;;;;;;;2.07;2.00;;;;;;;11.38;100.00;100062.75;5033324;28;20210;-75
2022/09/25 05:15:49;;;;;;;0.63;0.63;;;;;;;11.35;100.00;100068.88;5033002;28;20183;-76
2022/09/25 05:18:16;;;;;;;1.87;1.77;;;;;;;11.37;100.00;100069.34;5031323;28;20211;-81
2022/09/25 05:20:42;;;;;;;4.20;3.67;;;;;;;11.35;100.00;100068.88;5032729;28;20254;-75
2022/09/25 05:23:07;;;;;;;0.63;0.63;;;;;;;11.33;100.00;100078.22;5033314;28;20201;-75
2022/09/25 05:25:33;;;;;;;1.17;1.17;;;;;;;11.34;100.00;100065.34;5033133;28;20651;-75
2022/09/25 05:28:00;;;;;;;2.03;1.93;;;;;;;11.36;100.00;100074.03;5032917;28;20262;-76
2022/09/25 05:30:28;;;;;;;2.30;2.17;;;;;;;11.37;100.00;100075.63;5015076;28;20660;-76
2022/09/25 05:32:57;;;;;;;2.73;2.53;;;;;;;11.37;100.00;100075.63;5032640;28;20187;-76
2022/09/25 05:35:23;;;;;;;0.43;0.43;;;;;;;11.38;100.00;100073.69;5015090;28;20631;-76
2022/09/25 05:37:48;;;;;;;2.90;2.70;;;;;;;11.40;100.00;100072.25;5032916;28;20654;-74
2022/09/25 05:40:14;;;;;;;3.40;3.17;;;;;;;11.36;100.00;100075.97;5032125;28;20202;-74
2022/09/25 05:42:44;;;;;;;2.07;1.97;;;;;;;11.35;100.00;100082.56;5032646;28;20183;-76
2022/09/25 05:45:10;;;;;;;3.13;2.03;;;;;;;11.35;100.00;100085.28;5033176;28;20187;-75
2022/09/25 05:47:36;;;;;;;1.60;1.50;;;;;;;11.35;100.00;100088.84;5032314;28;20241;-75
2022/09/25 05:50:03;;;;;;;1.67;1.57;;;;;;;11.32;100.00;100084.81;5032657;28;20172;-75
2022/09/25 05:52:29;;;;;;;0.60;0.60;;;;;;;11.34;100.00;100087.22;5032816;28;20199;-75
2022/09/25 05:54:55;;;;;;;0.90;0.90;;;;;;;11.33;100.00;100091.91;5032617;28;20671;-75
2022/09/25 05:57:21;;;;;;;1.63;1.60;;;;;;;11.33;100.00;100089.16;5027557;28;20643;-75
2022/09/25 05:59:48;;;;;;;1.20;1.20;;;;;;;11.31;100.00;100094.16;5008278;28;20192;-75
2022/09/25 06:02:14;;;;;;;1.10;1.07;;;;;;;11.31;100.00;100091.41;5012235;28;20593;-74
2022/09/25 06:04:39;;;;;;;3.10;1.93;;;;;;;11.31;100.00;100088.69;5012809;28;20188;-75
2022/09/25 06:07:04;;;;;;;1.23;1.23;;;;;;;11.34;100.00;100089.97;5012222;28;20180;-75
2022/09/25 06:09:30;;;;;;;3.70;1.60;;;;;;;11.33;100.00;100080.94;5012522;28;20542;-75
2022/09/25 06:11:55;;;;;;;4.23;1.10;;;;;;;11.31;100.00;100088.69;5012281;28;20648;-75
2022/09/25 06:14:20;;;;;;;1.90;1.80;;;;;;;11.31;100.00;100083.22;5010583;28;20180;-75
2022/09/25 06:16:49;;;;;;;0.63;0.63;;;;;;;11.32;100.00;100084.81;5012184;28;20172;-73
2022/09/25 06:19:14;;;;;;;2.57;2.40;;;;;;;11.28;100.00;100088.50;5012240;28;20165;-73
2022/09/25 06:21:40;;;;;;;0.20;0.20;;;;;;;11.32;100.00;100086.75;5012088;28;20701;-78
2022/09/25 06:24:05;;;;;;;1.10;1.10;;;;;;;11.34;100.00;100084.50;5012227;28;20699;-73
2022/09/25 06:26:32;;;;;;;1.40;1.30;;;;;;;11.35;100.00;100091.56;5010306;28;20173;-72
2022/09/25 06:28:58;;;;;;;1.90;1.80;;;;;;;11.33;100.00;100085.63;5012016;28;20180;-73
2022/09/25 06:31:24;;;;;;;5.17;2.10;;;;;;;11.35;100.00;100086.09;5011755;28;20265;-72
2022/09/25 06:33:50;;;;;;;0.47;0.47;;;;;;;11.38;100.00;100084.63;5011894;28;20256;-73
2022/09/25 06:36:15;;;;;;;4.90;1.47;;;;;;;11.39;100.00;100083.50;5011798;28;20660;-73
2022/09/25 06:38:40;;;;;;;3.30;1.20;;;;;;;11.39;100.00;100084.31;5011723;28;20176;-73
2022/09/25 06:41:06;;;;;;;1.70;1.60;;;;;;;11.45;100.00;100082.22;5010789;28;20200;-73
2022/09/25 06:43:31;;;;;;;10.73;1.83;;;;;;;11.45;100.00;100091.22;5011578;28;20176;-73
2022/09/25 06:46:03;;;;;;;0.00;0.00;;;;;;;11.46;100.00;100089.28;5011034;28;20372;-76
2022/09/25 06:48:29;;;;;;;0.63;0.63;;;;;;;11.48;100.00;100085.09;5011320;28;20176;-76
2022/09/25 06:50:58;;;;;;;0.00;0.00;;;;;;;11.49;100.00;100085.91;5011711;28;20169;-75
2022/09/25 06:53:24;;;;;;;1.00;0.97;;;;;;;11.50;100.00;100090.25;5014898;28;20186;-76
2022/09/25 06:55:50;;;;;;;1.07;1.07;;;;;;;11.54;100.00;100092.00;5012798;28;20322;-75
2022/09/25 06:58:18;;;;;;;2.23;2.13;;;;;;;11.55;100.00;100087.31;5011606;28;20640;-75
2022/09/25 07:00:48;;;;;;;1.30;1.20;;;;;;;11.54;100.00;100086.53;5011122;28;20278;-76
2022/09/25 07:06:01;;;;;;;5.93;1.13;;;;;;;11.59;100.00;100099.25;5010781;28;20439;-75
2022/09/25 07:08:27;;;;;;;0.53;0.53;;;;;;;11.61;100.00;100095.03;5005801;28;20181;-76
2022/09/25 07:10:54;;;;;;;4.37;0.70;;;;;;;11.64;100.00;100096.31;5010894;28;20168;-78
2022/09/25 07:13:25;;;;;;;0.10;0.10;;;;;;;11.67;100.00;100092.91;5010768;28;20207;-77
2022/09/25 07:15:57;;;;;;;0.50;0.50;;;;;;;11.68;100.00;100096.47;5011238;28;20244;-77
2022/09/25 07:18:24;;;;;;;1.93;1.70;;;;;;;11.70;100.00;100096.94;5011007;28;20168;-76
2022/09/25 07:20:50;;;;;;;1.63;1.53;;;;;;;11.69;100.00;100101.59;5011100;28;20207;-76
2022/09/25 07:23:17;;;;;;;0.63;0.60;;;;;;;11.70;100.00;100094.19;5010592;28;20632;-74
2022/09/25 07:25:44;;;;;;;2.10;1.90;;;;;;;11.69;100.00;100090.66;5010392;28;20286;-75
2022/09/25 07:28:12;;;;;;;2.73;2.03;;;;;;;11.70;100.00;100102.41;5010697;28;20283;-74
2022/09/25 07:30:38;;;;;;;1.73;1.63;;;;;;;11.72;100.00;100103.72;5006710;28;20659;-74
2022/09/25 07:33:03;;;;;;;1.03;1.03;;;;;;;11.76;100.00;100099.19;5010416;28;20204;-75
2022/09/25 07:35:29;;;;;;;0.00;0.00;;;;;;;11.79;100.00;100101.28;5010852;28;20175;-75
2022/09/25 07:37:56;;;;;;;14.30;1.57;;;;;;;11.83;100.00;100107.69;5010515;28;20204;-76
2022/09/25 07:40:21;;;;;;;0.00;0.00;;;;;;;11.89;100.00;100120.09;5010497;28;20283;-75
2022/09/25 07:42:46;;;;;;;2.33;1.67;;;;;;;11.96;100.00;100111.34;5009331;28;20247;-75
2022/09/25 07:45:12;;;;;;;0.10;0.10;;;;;;;11.96;100.00;100119.56;5010834;28;20262;-74
2022/09/25 07:47:37;;;;;;;2.03;1.93;;;;;;;11.95;100.00;100111.69;5010541;28;20540;-74
2022/09/25 07:50:03;;;;;;;0.33;0.33;;;;;;;11.98;100.00;100116.50;5010768;28;20516;-74
2022/09/25 07:52:28;;;;;;;1.23;1.20;;;;;;;11.99;100.00;100112.63;5013417;28;20490;-75
2022/09/25 07:54:53;;;;;;;0.83;0.83;;;;;;;11.98;100.00;100121.97;4997376;28;20528;-75
2022/09/25 07:57:19;;;;;;;6.37;2.20;;;;;;;11.95;100.00;100120.69;5014299;28;20187;-74
2022/09/25 07:59:47;;;;;;;1.77;1.67;;;;;;;11.94;100.00;100121.03;4996805;28;20231;-75
2022/09/25 08:02:13;;;;;;;0.67;0.67;;;;;;;11.95;100.00;100128.13;5014329;28;20469;-75
2022/09/25 08:04:38;;;;;;;0.73;0.73;;;;;;;11.94;100.00;100118.28;5014641;28;20266;-74
2022/09/25 08:07:03;;;;;;;1.63;1.53;;;;;;;11.95;100.00;100125.38;5014222;28;20540;-75
2022/09/25 08:09:29;;;;;;;0.37;0.37;;;;;;;11.97;100.00;100121.19;5014353;28;20169;-76
2022/09/25 08:11:54;;;;;;;0.00;0.00;;;;;;;11.98;100.00;100124.72;5014203;28;20172;-75
2022/09/25 08:14:21;;;;;;;0.63;0.63;;;;;;;12.01;100.00;100130.34;5014470;28;20264;-75
2022/09/25 08:16:47;;;;;;;2.23;1.70;;;;;;;12.01;100.00;100130.34;5013933;28;20161;-74
2022/09/25 08:19:16;;;;;;;1.33;1.27;;;;;;;11.97;100.00;100139.53;5014233;28;20173;-74
2022/09/25 08:21:41;;;;;;;15.17;1.90;;;;;;;12.01;100.00;100135.84;5014004;28;20230;-75
2022/09/25 08:24:07;;;;;;;0.20;0.20;;;;;;;12.10;100.00;100131.09;5014150;28;20169;-75
2022/09/25 08:26:32;;;;;;;0.30;0.30;;;;;;;12.19;100.00;100133.81;5013662;28;20176;-75
2022/09/25 08:28:58;;;;;;;0.80;0.70;;;;;;;12.23;100.00;100133.97;5014044;28;20760;-75
2022/09/25 08:31:24;;;;;;;0.40;0.40;;;;;;;12.18;100.00;100145.91;5013879;28;20239;-75
2022/09/25 08:33:50;;;;;;;1.20;1.17;;;;;;;12.17;100.00;100144.31;5013962;28;20636;-74
2022/09/25 08:36:16;;;;;;;9.13;1.97;;;;;;;12.10;100.00;100144.00;5013651;28;20200;-74
2022/09/25 08:38:41;;;;;;;0.53;0.53;;;;;;;12.09;100.00;100139.66;5014279;28;20200;-75
2022/09/25 08:41:26;;;;;;;2.13;2.03;;;;;;;12.04;100.00;100131.63;5013063;28;20668;-74
2022/09/25 08:43:59;;;;;;;0.00;0.00;;;;;;;12.05;100.00;100142.25;5013795;28;20180;-74
2022/09/25 08:49:59;;;;;;;1.23;1.13;;;;;;;11.93;100.00;100133.91;5013864;28;20179;-74
2022/09/25 08:52:25;;;;;;;1.23;1.13;;;;;;;11.93;100.00;100139.41;5013508;28;20176;-75
2022/09/25 08:54:51;;;;;;;2.80;2.60;;;;;;;11.96;100.00;100143.41;5013581;28;20183;-75
2022/09/25 08:57:28;;;;;;;2.53;2.33;;;;;;;11.96;100.00;100140.66;5013207;28;20189;-74
2022/09/25 09:00:00;;;;;;;6.57;3.63;;;;;;;11.96;100.00;100135.19;5013593;28;20204;-75
2022/09/25 09:02:37;;;;;;;2.27;2.00;;;;;;;11.97;100.00;100145.81;5012730;28;20180;-75
2022/09/25 09:05:06;;;;;;;1.10;1.10;;;;;;;12.00;100.00;100139.69;5013559;28;20168;-75
2022/09/25 09:07:41;;;;;;;3.77;3.40;;;;;;;12.05;100.00;100147.72;5013020;28;20172;-75
2022/09/25 09:10:06;;;;;;;0.70;0.50;;;;;;;12.09;100.00;100148.66;5013297;28;20172;-75
2022/09/25 09:12:40;;;;;;;0.67;0.67;;;;;;;12.17;100.00;100155.25;5013261;28;20175;-75
2022/09/25 09:15:24;;;;;;;0.40;0.40;;;;;;;12.14;100.00;100156.69;5013327;28;20192;-76
2022/09/25 09:17:50;;;;;;;0.73;0.73;;;;;;;12.18;100.00;100148.66;5012987;28;20184;-74
2022/09/25 09:20:18;;;;;;;1.03;1.03;;;;;;;12.17;100.00;100150.59;5012901;28;20196;-75
2022/09/25 09:22:47;;;;;;;1.97;1.77;;;;;;;12.20;100.00;100152.66;5012991;28;20184;-74
2022/09/25 09:25:15;;;;;;;1.13;0.97;;;;;;;12.18;100.00;100151.38;5013019;28;20192;-75
2022/09/25 09:27:59;;;;;;;0.00;0.00;;;;;;;12.21;100.00;100150.72;5012916;28;20183;-75
2022/09/25 09:30:39;;;;;;;0.50;0.50;;;;;;;12.30;100.00;100145.22;5012894;28;20176;-75
2022/09/25 09:33:40;;;;;;;0.97;0.97;;;;;;;12.33;100.00;100144.53;5012976;28;20172;-75
2022/09/25 09:36:29;;;;;;;0.83;0.83;;;;;;;12.43;100.00;100150.44;5012689;28;20181;-75
2022/09/25 09:39:14;;;;;;;1.13;1.13;;;;;;;12.46;100.00;100149.78;5012662;28;20191;-75
2022/09/25 09:41:39;;;;;;;1.17;1.17;;;;;;;12.42;100.00;100148.03;5012240;28;20235;-75
2022/09/25 09:44:36;;;;;;;0.53;0.53;;;;;;;12.52;100.00;100144.91;4995138;28;20181;-75
2022/09/25 09:47:10;;;;;;;0.17;0.17;;;;;;;12.55;100.00;100141.50;5012186;28;20522;-77
2022/09/25 09:49:42;;;;;;;0.30;0.30;;;;;;;12.58;100.00;100140.84;5012509;28;20689;-76
2022/09/25 09:52:07;;;;;;;1.10;1.10;;;;;;;12.59;100.00;100141.66;5012433;28;20828;-76
2022/09/25 09:55:08;;;;;;;0.30;0.30;;;;;;;12.58;100.00;100142.78;5012439;28;20259;-76
2022/09/25 09:57:47;;;;;;;0.40;0.40;;;;;;;12.59;100.00;100152.63;4932097;29;20227;-75
2022/09/25 10:00:16;;;;;;;1.47;1.47;;;;;;;12.60;100.00;100140.53;5003123;28;20676;-76
2022/09/25 10:03:05;;;;;;;1.10;1.10;;;;;;;12.56;100.00;100145.84;5012109;28;20310;-77
2022/09/25 10:05:38;;;;;;;0.10;0.10;;;;;;;12.62;100.00;100139.06;5012586;28;20693;-75
2022/09/25 10:08:03;;;;;;;0.60;0.60;;;;;;;12.70;100.00;100140.13;5012375;28;20511;-75
2022/09/25 10:10:37;;;;;;;0.20;0.20;;;;;;;12.70;100.00;100140.13;4994538;28;20207;-76
2022/09/25 10:13:09;;;;;;;0.20;0.20;;;;;;;12.75;100.00;100134.47;5012148;28;20173;-76
2022/09/25 10:15:47;;;;;;;0.40;0.20;;;;;;;12.70;100.00;100131.91;5011385;28;20550;-75
2022/09/25 10:18:14;;;;;;;1.40;1.30;;;;;;;12.66;100.00;100133.69;5011912;28;20172;-77
2022/09/25 10:21:09;;;;;;;7.00;0.90;;;;;;;12.67;100.00;100129.81;5011929;28;20240;-77
2022/09/25 10:23:39;;;;;;;1.43;0.87;;;;;;;12.70;100.00;100140.91;5012170;28;20694;-76
2022/09/25 10:26:23;;;;;;;2.47;2.30;;;;;;;12.72;100.00;100133.16;4993919;28;20532;-76
2022/09/25 10:28:49;;;;;;;1.10;1.10;;;;;;;12.70;100.00;100137.38;4994224;28;20185;-76
2022/09/25 10:31:16;;;;;;;0.10;0.10;;;;;;;12.75;100.00;100145.41;5011687;28;20250;-75
2022/09/25 10:33:41;;;;;;;0.87;0.87;;;;;;;12.75;100.00;100142.69;5011775;28;20176;-76
2022/09/25 10:36:07;;;;;;;0.83;0.83;;;;;;;12.82;100.00;100140.19;5011462;28;20187;-75
2022/09/25 10:38:43;;;;;;;2.20;1.97;;;;;;;12.84;100.00;100143.41;5011573;28;20173;-74
2022/09/25 10:41:21;;;;;;;2.30;1.47;;;;;;;12.80;100.00;100137.00;5010864;28;20210;-75
2022/09/25 10:43:55;;;;;;;1.17;1.13;;;;;;;12.83;100.00;100147.28;5011528;28;20180;-74
2022/09/25 10:52:13;;;;;;;5.30;1.60;;;;;;;12.94;100.00;100136.72;5011881;28;20183;-75
2022/09/25 10:54:39;;;;;;;1.27;1.27;;;;;;;12.98;100.00;100145.88;5011422;28;20862;-75
2022/09/25 10:57:20;;;;;;;1.30;1.17;;;;;;;12.94;99.16;100134.78;5011078;28;20272;-74
2022/09/25 10:59:50;;;;;;;6.53;1.07;;;;;;;12.93;98.94;100135.13;5011493;28;20172;-75
2022/09/25 11:02:34;;;;;;;0.20;0.20;;;;;;;12.91;98.88;100131.91;5010965;28;20210;-75
2022/09/25 11:05:00;;;;;;;0.53;0.40;;;;;;;12.86;97.10;100137.59;5011136;28;20184;-74
2022/09/25 11:07:26;;;;;;;1.00;1.00;;;;;;;12.85;95.56;100138.72;5010961;28;20181;-74
2022/09/25 11:09:52;;;;;;;0.00;0.00;;;;;;;12.90;96.47;100142.09;5011093;28;20180;-75
2022/09/25 11:12:26;;;;;;;0.30;0.30;;;;;;;12.95;97.16;100138.34;5011002;28;20176;-74
2022/09/25 11:15:01;;;;;;;0.20;0.20;;;;;;;12.99;96.48;100142.00;5011006;28;20180;-74
2022/09/25 11:17:42;;;;;;;0.67;0.67;;;;;;;13.00;96.41;100136.19;5010718;28;20172;-74
2022/09/25 11:20:49;;;;;;;0.30;0.30;;;;;;;13.09;96.75;100136.13;5010741;28;20683;-74
2022/09/25 11:23:36;;;;;;;1.10;1.00;;;;;;;13.11;96.53;100131.09;5007833;28;20790;-74
2022/09/25 11:26:11;;;;;;;0.00;0.00;;;;;;;13.15;96.21;100126.53;4993043;28;20177;-75
2022/09/25 11:28:51;;;;;;;2.63;1.07;;;;;;;13.24;96.19;100134.72;5010755;28;20172;-75
2022/09/25 11:31:16;;;;;;;0.53;0.53;;;;;;;13.30;95.48;100125.13;5010782;28;20183;-75
2022/09/25 11:33:55;;;;;;;0.93;0.93;;;;;;;13.32;95.45;100125.63;5010756;28;20165;-75
2022/09/25 11:36:31;;;;;;;0.73;0.73;;;;;;;13.33;94.89;100121.75;4992833;28;20187;-75
2022/09/25 11:42:15;;;;;;;0.10;0.10;;;;;;;13.28;94.01;100121.94;4976517;28;20231;-75
2022/09/25 11:44:56;;;;;;;0.00;0.00;;;;;;;13.29;94.00;100118.84;5011013;28;20190;-75
2022/09/25 11:47:32;;;;;;;0.00;0.00;;;;;;;13.35;94.30;100108.47;4992710;28;20176;-75
2022/09/25 11:50:00;;;;;;;0.00;0.00;;;;;;;13.54;94.67;100102.47;5010770;28;20169;-75
2022/09/25 11:52:54;;;;;;;0.27;0.27;;;;;;;13.56;92.27;100108.41;5010485;28;20188;-75
2022/09/25 11:55:30;;;;;;;0.20;0.20;;;;;;;13.70;92.05;100111.66;5010541;28;20238;-75